Terminal Aerodrome Forecast
Issued by NWS Sterling, VA

Home | Current Version | Previous Version | Text Only | Print | Product List | Glossary On
Versions: 1 2 3 4 5 6 7 8 9 10 11 12 13 14 15 16 17 18 19
000
FTUS41 KLWX 301135
TAFMRB
TAF
KMRB 301135Z 3012/3112 00000KT 3SM BR BKN250
     FM301300 19005KT P6SM BKN250
     FM301900 18010KT P6SM VCTS BKN050CB
     FM310000 18008KT P6SM BKN050
     FM310700 19005KT 3SM BR BKN060=

USA.gov is the U.S. government's official web portal to all federal, state and local government web resources and services.